Terminal Aerodrome Forecast
Issued by NWS Cleveland, OH

Home | Current Version | Previous Version | Graphics & Text | Print | Product List | Glossary Off
Versions: 1 2 3 4 5 6 7 8 9 10 11 12 13 14 15 16 17 18

501
FTUS41 KCLE 090542
TAFERI
TAF
KERI 090542Z 0906/1006 24006KT 6SM -SN OVC008
     FM091000 26006KT P6SM OVC006
     FM091600 24010KT 6SM -SHSN OVC012
     FM092000 24010G18KT P6SM OVC020
     FM100300 24010G18KT 3SM -SHSN OVC012=

USA.gov is the U.S. government's official web portal to all federal, state and local government web resources and services.